Bo Lavadero, Puerto Rico
Current Conditions -  °F | °C
As of 4:50 PM on Tuesday 21 Oct 2014 (Local Time) from TJBQ Reporting Station
Thunderstorm Thunderstorm  
Wind Chill: 82°   Ceiling: 4200
Heat Index: 88°   Visibility: 10mi
Dew Point: 73°   Wind: 10mph
Humidity: 74%   Direction: 90°E
Pressure: 29.98"   Gusts: NA
Location:  18.1684°N, 67.1306°W
Report Text: TJBQ 212050Z 09009KT 10SM TSRA SCT035 SCT041 BKN042 28/23 A2998 RMK LTG VC AND DSNT SE AND S TS SE-SW-- RWY08 ATIS B
Loading
Personal Weather Stations






























Interactive Weather Map
Tropical Storm Tracking
New forecast layout! Learn more

10-Day Weather Forecast

Advertisements
Track Severe Weather on mobile